sensor_id;sensor_type;location;lat;lon;timestamp;P1;durP1;ratioP1;P2;durP2;ratioP2
15968;SDS011;8085;53.472;9.794;2023-07-13T00:01:47;7.72;;;2.03;;
15968;SDS011;8085;53.472;9.794;2023-07-13T00:04:15;3.85;;;1.73;;
15968;SDS011;8085;53.472;9.794;2023-07-13T00:06:43;4.18;;;1.88;;
15968;SDS011;8085;53.472;9.794;2023-07-13T00:09:10;4.60;;;1.83;;
15968;SDS011;8085;53.472;9.794;2023-07-13T00:11:40;5.10;;;1.98;;
15968;SDS011;8085;53.472;9.794;2023-07-13T00:14:07;3.67;;;1.98;;
15968;SDS011;8085;53.472;9.794;2023-07-13T00:16:35;4.55;;;2.53;;
15968;SDS011;8085;53.472;9.794;2023-07-13T00:19:03;11.40;;;2.50;;
15968;SDS011;8085;53.472;9.794;2023-07-13T00:21:31;4.10;;;2.40;;
15968;SDS011;8085;53.472;9.794;2023-07-13T00:23:58;5.05;;;2.90;;
15968;SDS011;8085;53.472;9.794;2023-07-13T00:26:25;5.82;;;3.08;;
15968;SDS011;8085;53.472;9.794;2023-07-13T00:28:53;4.82;;;2.63;;
15968;SDS011;8085;53.472;9.794;2023-07-13T00:31:20;5.45;;;2.58;;
15968;SDS011;8085;53.472;9.794;2023-07-13T00:33:47;5.75;;;3.65;;
15968;SDS011;8085;53.472;9.794;2023-07-13T00:36:14;5.28;;;2.97;;
15968;SDS011;8085;53.472;9.794;2023-07-13T00:38:41;10.25;;;3.53;;
15968;SDS011;8085;53.472;9.794;2023-07-13T00:41:08;3.65;;;3.33;;
15968;SDS011;8085;53.472;9.794;2023-07-13T00:43:35;9.32;;;4.45;;
15968;SDS011;8085;53.472;9.794;2023-07-13T00:48:57;10.68;;;4.75;;
15968;SDS011;8085;53.472;9.794;2023-07-13T00:53:56;10.63;;;4.40;;
15968;SDS011;8085;53.472;9.794;2023-07-13T00:56:25;9.85;;;4.15;;
15968;SDS011;8085;53.472;9.794;2023-07-13T00:58:53;8.38;;;5.00;;
15968;SDS011;8085;53.472;9.794;2023-07-13T01:01:20;9.07;;;5.28;;
15968;SDS011;8085;53.472;9.794;2023-07-13T01:03:49;6.32;;;4.97;;
15968;SDS011;8085;53.472;9.794;2023-07-13T01:06:16;5.95;;;4.85;;
15968;SDS011;8085;53.472;9.794;2023-07-13T01:08:43;7.25;;;4.47;;
15968;SDS011;8085;53.472;9.794;2023-07-13T01:11:10;9.52;;;5.07;;
15968;SDS011;8085;53.472;9.794;2023-07-13T01:13:37;8.98;;;5.18;;
15968;SDS011;8085;53.472;9.794;2023-07-13T01:16:05;8.95;;;5.50;;
15968;SDS011;8085;53.472;9.794;2023-07-13T01:18:40;10.38;;;5.25;;
15968;SDS011;8085;53.472;9.794;2023-07-13T01:21:08;7.15;;;4.78;;
15968;SDS011;8085;53.472;9.794;2023-07-13T01:23:35;7.25;;;4.55;;
15968;SDS011;8085;53.472;9.794;2023-07-13T01:26:02;9.98;;;5.68;;
15968;SDS011;8085;53.472;9.794;2023-07-13T01:28:29;8.85;;;5.00;;
15968;SDS011;8085;53.472;9.794;2023-07-13T01:30:56;10.35;;;5.45;;
15968;SDS011;8085;53.472;9.794;2023-07-13T01:33:24;7.50;;;4.93;;
15968;SDS011;8085;53.472;9.794;2023-07-13T01:35:52;12.38;;;5.18;;
15968;SDS011;8085;53.472;9.794;2023-07-13T01:38:21;6.68;;;5.18;;
15968;SDS011;8085;53.472;9.794;2023-07-13T01:40:48;10.38;;;5.20;;
15968;SDS011;8085;53.472;9.794;2023-07-13T01:43:16;10.52;;;5.85;;
15968;SDS011;8085;53.472;9.794;2023-07-13T01:45:43;12.15;;;5.82;;
15968;SDS011;8085;53.472;9.794;2023-07-13T01:48:10;7.82;;;5.63;;
15968;SDS011;8085;53.472;9.794;2023-07-13T01:50:37;8.35;;;5.80;;
15968;SDS011;8085;53.472;9.794;2023-07-13T01:53:04;10.38;;;5.50;;
15968;SDS011;8085;53.472;9.794;2023-07-13T01:55:33;8.60;;;5.60;;
15968;SDS011;8085;53.472;9.794;2023-07-13T01:58:00;9.35;;;5.45;;
15968;SDS011;8085;53.472;9.794;2023-07-13T02:00:27;10.25;;;5.47;;
15968;SDS011;8085;53.472;9.794;2023-07-13T02:02:54;9.65;;;5.63;;
15968;SDS011;8085;53.472;9.794;2023-07-13T02:05:22;10.90;;;6.30;;
15968;SDS011;8085;53.472;9.794;2023-07-13T02:07:49;6.57;;;5.53;;
15968;SDS011;8085;53.472;9.794;2023-07-13T02:10:16;7.90;;;5.20;;
15968;SDS011;8085;53.472;9.794;2023-07-13T02:12:44;10.52;;;5.57;;
15968;SDS011;8085;53.472;9.794;2023-07-13T02:15:11;8.88;;;5.90;;
15968;SDS011;8085;53.472;9.794;2023-07-13T02:17:38;9.20;;;5.55;;
15968;SDS011;8085;53.472;9.794;2023-07-13T02:20:06;8.35;;;5.47;;
15968;SDS011;8085;53.472;9.794;2023-07-13T02:22:34;8.90;;;5.93;;
15968;SDS011;8085;53.472;9.794;2023-07-13T02:25:01;7.03;;;5.75;;
15968;SDS011;8085;53.472;9.794;2023-07-13T02:27:28;6.55;;;5.15;;
15968;SDS011;8085;53.472;9.794;2023-07-13T02:29:56;11.40;;;6.10;;
15968;SDS011;8085;53.472;9.794;2023-07-13T02:32:23;9.00;;;5.22;;
15968;SDS011;8085;53.472;9.794;2023-07-13T02:34:51;9.05;;;5.97;;
15968;SDS011;8085;53.472;9.794;2023-07-13T02:37:18;8.45;;;5.18;;
15968;SDS011;8085;53.472;9.794;2023-07-13T02:39:46;9.52;;;5.18;;
15968;SDS011;8085;53.472;9.794;2023-07-13T02:42:13;10.98;;;5.40;;
15968;SDS011;8085;53.472;9.794;2023-07-13T02:44:40;12.52;;;5.47;;
15968;SDS011;8085;53.472;9.794;2023-07-13T02:47:08;8.35;;;5.22;;
15968;SDS011;8085;53.472;9.794;2023-07-13T02:49:35;9.95;;;5.60;;
15968;SDS011;8085;53.472;9.794;2023-07-13T02:52:02;7.82;;;5.38;;
15968;SDS011;8085;53.472;9.794;2023-07-13T02:54:29;7.53;;;5.35;;
15968;SDS011;8085;53.472;9.794;2023-07-13T02:56:56;8.45;;;5.55;;
15968;SDS011;8085;53.472;9.794;2023-07-13T02:59:23;8.85;;;4.95;;
15968;SDS011;8085;53.472;9.794;2023-07-13T03:01:50;7.95;;;4.63;;
15968;SDS011;8085;53.472;9.794;2023-07-13T03:04:18;9.15;;;5.28;;
15968;SDS011;8085;53.472;9.794;2023-07-13T03:06:45;12.02;;;5.18;;
15968;SDS011;8085;53.472;9.794;2023-07-13T03:09:12;9.80;;;5.45;;
15968;SDS011;8085;53.472;9.794;2023-07-13T03:11:39;11.50;;;5.13;;
15968;SDS011;8085;53.472;9.794;2023-07-13T03:14:07;10.90;;;5.50;;
15968;SDS011;8085;53.472;9.794;2023-07-13T03:16:34;9.88;;;4.90;;
15968;SDS011;8085;53.472;9.794;2023-07-13T03:19:01;9.18;;;5.07;;
15968;SDS011;8085;53.472;9.794;2023-07-13T03:21:30;9.75;;;5.30;;
15968;SDS011;8085;53.472;9.794;2023-07-13T03:23:57;9.38;;;5.07;;
15968;SDS011;8085;53.472;9.794;2023-07-13T03:26:23;8.45;;;5.05;;
15968;SDS011;8085;53.472;9.794;2023-07-13T03:28:50;9.00;;;4.82;;
15968;SDS011;8085;53.472;9.794;2023-07-13T03:31:18;9.45;;;5.32;;
15968;SDS011;8085;53.472;9.794;2023-07-13T03:33:46;9.93;;;5.20;;
15968;SDS011;8085;53.472;9.794;2023-07-13T03:36:14;7.55;;;5.00;;
15968;SDS011;8085;53.472;9.794;2023-07-13T03:38:45;8.50;;;5.15;;
15968;SDS011;8085;53.472;9.794;2023-07-13T03:41:13;12.18;;;4.68;;
15968;SDS011;8085;53.472;9.794;2023-07-13T03:43:40;10.82;;;4.90;;
15968;SDS011;8085;53.472;9.794;2023-07-13T03:46:07;9.73;;;4.43;;
15968;SDS011;8085;53.472;9.794;2023-07-13T03:48:34;9.80;;;5.15;;
15968;SDS011;8085;53.472;9.794;2023-07-13T03:51:01;10.18;;;5.22;;
15968;SDS011;8085;53.472;9.794;2023-07-13T03:53:28;9.93;;;5.30;;
15968;SDS011;8085;53.472;9.794;2023-07-13T03:55:57;12.90;;;5.38;;
15968;SDS011;8085;53.472;9.794;2023-07-13T03:58:28;7.82;;;4.80;;
15968;SDS011;8085;53.472;9.794;2023-07-13T04:00:56;9.48;;;5.03;;
15968;SDS011;8085;53.472;9.794;2023-07-13T04:03:24;7.78;;;4.97;;
15968;SDS011;8085;53.472;9.794;2023-07-13T04:05:53;9.70;;;5.15;;
15968;SDS011;8085;53.472;9.794;2023-07-13T04:08:20;9.75;;;5.22;;
15968;SDS011;8085;53.472;9.794;2023-07-13T04:10:47;7.68;;;4.72;;
15968;SDS011;8085;53.472;9.794;2023-07-13T04:13:15;11.88;;;5.47;;
15968;SDS011;8085;53.472;9.794;2023-07-13T04:15:42;8.23;;;4.95;;
15968;SDS011;8085;53.472;9.794;2023-07-13T04:18:09;7.35;;;4.30;;
15968;SDS011;8085;53.472;9.794;2023-07-13T04:20:36;11.63;;;5.07;;
15968;SDS011;8085;53.472;9.794;2023-07-13T04:23:03;10.93;;;5.00;;
15968;SDS011;8085;53.472;9.794;2023-07-13T04:25:30;9.93;;;4.63;;
15968;SDS011;8085;53.472;9.794;2023-07-13T04:27:57;10.75;;;5.60;;
15968;SDS011;8085;53.472;9.794;2023-07-13T04:30:25;9.55;;;4.80;;
15968;SDS011;8085;53.472;9.794;2023-07-13T04:32:52;12.65;;;5.00;;
15968;SDS011;8085;53.472;9.794;2023-07-13T04:35:19;8.50;;;5.05;;
15968;SDS011;8085;53.472;9.794;2023-07-13T04:37:47;10.60;;;6.00;;
15968;SDS011;8085;53.472;9.794;2023-07-13T04:40:15;13.20;;;5.30;;
15968;SDS011;8085;53.472;9.794;2023-07-13T04:42:42;8.23;;;5.93;;
15968;SDS011;8085;53.472;9.794;2023-07-13T04:45:09;13.35;;;5.63;;
15968;SDS011;8085;53.472;9.794;2023-07-13T04:47:38;14.13;;;6.38;;
15968;SDS011;8085;53.472;9.794;2023-07-13T04:50:05;8.70;;;4.97;;
15968;SDS011;8085;53.472;9.794;2023-07-13T04:52:33;12.75;;;5.55;;
15968;SDS011;8085;53.472;9.794;2023-07-13T04:55:00;8.23;;;5.13;;
15968;SDS011;8085;53.472;9.794;2023-07-13T04:57:27;9.30;;;5.28;;
15968;SDS011;8085;53.472;9.794;2023-07-13T04:59:54;8.90;;;5.53;;
15968;SDS011;8085;53.472;9.794;2023-07-13T05:02:21;12.30;;;4.75;;
15968;SDS011;8085;53.472;9.794;2023-07-13T05:04:49;8.80;;;6.15;;
15968;SDS011;8085;53.472;9.794;2023-07-13T05:07:16;6.15;;;5.15;;
15968;SDS011;8085;53.472;9.794;2023-07-13T05:09:43;9.10;;;4.60;;
15968;SDS011;8085;53.472;9.794;2023-07-13T05:12:10;9.93;;;4.18;;
15968;SDS011;8085;53.472;9.794;2023-07-13T05:14:37;11.82;;;4.93;;
15968;SDS011;8085;53.472;9.794;2023-07-13T05:17:04;7.88;;;3.88;;
15968;SDS011;8085;53.472;9.794;2023-07-13T05:19:31;9.18;;;3.97;;
15968;SDS011;8085;53.472;9.794;2023-07-13T05:21:59;11.82;;;4.35;;
15968;SDS011;8085;53.472;9.794;2023-07-13T05:24:27;10.93;;;3.97;;
15968;SDS011;8085;53.472;9.794;2023-07-13T05:26:54;10.18;;;4.03;;
15968;SDS011;8085;53.472;9.794;2023-07-13T05:29:21;10.20;;;4.57;;
15968;SDS011;8085;53.472;9.794;2023-07-13T05:31:49;8.38;;;4.05;;
15968;SDS011;8085;53.472;9.794;2023-07-13T05:34:16;13.93;;;4.25;;
15968;SDS011;8085;53.472;9.794;2023-07-13T05:36:43;6.85;;;3.85;;
15968;SDS011;8085;53.472;9.794;2023-07-13T05:39:11;12.45;;;4.15;;
15968;SDS011;8085;53.472;9.794;2023-07-13T05:41:38;9.38;;;3.80;;
15968;SDS011;8085;53.472;9.794;2023-07-13T05:44:05;10.30;;;4.05;;
15968;SDS011;8085;53.472;9.794;2023-07-13T05:46:32;10.82;;;3.85;;
15968;SDS011;8085;53.472;9.794;2023-07-13T05:48:59;9.43;;;3.92;;
15968;SDS011;8085;53.472;9.794;2023-07-13T05:51:26;13.05;;;3.83;;
15968;SDS011;8085;53.472;9.794;2023-07-13T05:53:53;7.60;;;3.13;;
15968;SDS011;8085;53.472;9.794;2023-07-13T05:56:21;11.98;;;3.83;;
15968;SDS011;8085;53.472;9.794;2023-07-13T05:58:48;10.05;;;3.47;;
15968;SDS011;8085;53.472;9.794;2023-07-13T06:01:15;8.73;;;3.50;;
15968;SDS011;8085;53.472;9.794;2023-07-13T06:03:44;8.75;;;3.35;;
15968;SDS011;8085;53.472;9.794;2023-07-13T06:06:10;10.73;;;3.15;;
15968;SDS011;8085;53.472;9.794;2023-07-13T06:08:37;14.50;;;3.42;;
15968;SDS011;8085;53.472;9.794;2023-07-13T06:11:04;9.52;;;3.63;;
15968;SDS011;8085;53.472;9.794;2023-07-13T06:13:34;10.00;;;3.25;;
15968;SDS011;8085;53.472;9.794;2023-07-13T06:16:01;10.63;;;3.53;;
15968;SDS011;8085;53.472;9.794;2023-07-13T06:18:30;12.65;;;3.08;;
15968;SDS011;8085;53.472;9.794;2023-07-13T06:20:57;8.82;;;3.15;;
15968;SDS011;8085;53.472;9.794;2023-07-13T06:23:24;12.00;;;2.75;;
15968;SDS011;8085;53.472;9.794;2023-07-13T06:25:51;9.90;;;3.05;;
15968;SDS011;8085;53.472;9.794;2023-07-13T06:28:18;7.95;;;2.42;;
15968;SDS011;8085;53.472;9.794;2023-07-13T06:30:46;9.65;;;2.85;;
15968;SDS011;8085;53.472;9.794;2023-07-13T06:33:13;8.90;;;2.30;;
15968;SDS011;8085;53.472;9.794;2023-07-13T06:35:40;12.63;;;2.70;;
15968;SDS011;8085;53.472;9.794;2023-07-13T06:38:07;11.00;;;2.88;;
15968;SDS011;8085;53.472;9.794;2023-07-13T06:40:34;8.93;;;2.70;;
15968;SDS011;8085;53.472;9.794;2023-07-13T06:43:01;10.15;;;2.58;;
15968;SDS011;8085;53.472;9.794;2023-07-13T06:45:28;6.40;;;2.63;;
15968;SDS011;8085;53.472;9.794;2023-07-13T06:47:56;10.88;;;2.63;;
15968;SDS011;8085;53.472;9.794;2023-07-13T06:50:23;17.35;;;2.88;;
15968;SDS011;8085;53.472;9.794;2023-07-13T06:52:50;10.30;;;2.70;;
15968;SDS011;8085;53.472;9.794;2023-07-13T06:55:17;7.63;;;2.50;;
15968;SDS011;8085;53.472;9.794;2023-07-13T06:57:44;12.68;;;2.90;;
15968;SDS011;8085;53.472;9.794;2023-07-13T07:00:12;11.27;;;2.53;;
15968;SDS011;8085;53.472;9.794;2023-07-13T07:02:39;10.68;;;2.40;;
15968;SDS011;8085;53.472;9.794;2023-07-13T07:05:08;5.75;;;1.88;;
15968;SDS011;8085;53.472;9.794;2023-07-13T07:07:35;7.25;;;2.20;;
15968;SDS011;8085;53.472;9.794;2023-07-13T07:10:02;7.88;;;2.00;;
15968;SDS011;8085;53.472;9.794;2023-07-13T07:12:30;7.22;;;1.90;;
15968;SDS011;8085;53.472;9.794;2023-07-13T07:14:57;8.32;;;2.03;;
15968;SDS011;8085;53.472;9.794;2023-07-13T07:17:24;6.20;;;1.67;;
15968;SDS011;8085;53.472;9.794;2023-07-13T07:19:51;8.32;;;2.20;;
15968;SDS011;8085;53.472;9.794;2023-07-13T07:22:20;9.07;;;2.00;;
15968;SDS011;8085;53.472;9.794;2023-07-13T07:24:47;13.00;;;2.50;;
15968;SDS011;8085;53.472;9.794;2023-07-13T07:27:14;7.90;;;2.00;;
15968;SDS011;8085;53.472;9.794;2023-07-13T07:29:41;7.55;;;2.33;;
15968;SDS011;8085;53.472;9.794;2023-07-13T07:32:08;8.50;;;1.88;;
15968;SDS011;8085;53.472;9.794;2023-07-13T07:34:34;7.68;;;2.00;;
15968;SDS011;8085;53.472;9.794;2023-07-13T07:37:02;11.07;;;2.35;;
15968;SDS011;8085;53.472;9.794;2023-07-13T07:39:30;9.38;;;2.35;;
15968;SDS011;8085;53.472;9.794;2023-07-13T07:41:58;13.25;;;2.25;;
15968;SDS011;8085;53.472;9.794;2023-07-13T07:44:24;9.95;;;2.22;;
15968;SDS011;8085;53.472;9.794;2023-07-13T07:46:52;13.52;;;2.63;;
15968;SDS011;8085;53.472;9.794;2023-07-13T07:49:19;8.60;;;2.38;;
15968;SDS011;8085;53.472;9.794;2023-07-13T07:51:46;7.50;;;2.00;;
15968;SDS011;8085;53.472;9.794;2023-07-13T07:54:13;9.57;;;2.17;;
15968;SDS011;8085;53.472;9.794;2023-07-13T07:56:41;6.63;;;2.28;;
15968;SDS011;8085;53.472;9.794;2023-07-13T07:59:08;10.90;;;2.40;;
15968;SDS011;8085;53.472;9.794;2023-07-13T08:01:35;8.13;;;2.65;;
15968;SDS011;8085;53.472;9.794;2023-07-13T08:04:02;8.18;;;2.38;;
15968;SDS011;8085;53.472;9.794;2023-07-13T08:06:29;8.50;;;2.55;;
15968;SDS011;8085;53.472;9.794;2023-07-13T08:08:58;10.68;;;2.58;;
15968;SDS011;8085;53.472;9.794;2023-07-13T08:11:26;8.00;;;2.10;;
15968;SDS011;8085;53.472;9.794;2023-07-13T08:13:54;10.55;;;3.15;;
15968;SDS011;8085;53.472;9.794;2023-07-13T08:16:21;12.05;;;3.15;;
15968;SDS011;8085;53.472;9.794;2023-07-13T08:18:49;7.07;;;2.42;;
15968;SDS011;8085;53.472;9.794;2023-07-13T08:21:17;8.48;;;2.58;;
15968;SDS011;8085;53.472;9.794;2023-07-13T08:23:45;8.05;;;2.53;;
15968;SDS011;8085;53.472;9.794;2023-07-13T08:26:12;10.13;;;2.72;;
15968;SDS011;8085;53.472;9.794;2023-07-13T08:28:40;12.45;;;3.03;;
15968;SDS011;8085;53.472;9.794;2023-07-13T08:31:09;7.90;;;2.60;;
15968;SDS011;8085;53.472;9.794;2023-07-13T08:33:36;12.68;;;2.55;;
15968;SDS011;8085;53.472;9.794;2023-07-13T08:36:07;9.18;;;2.85;;
15968;SDS011;8085;53.472;9.794;2023-07-13T08:38:34;12.73;;;2.70;;
15968;SDS011;8085;53.472;9.794;2023-07-13T08:41:01;7.60;;;2.40;;
15968;SDS011;8085;53.472;9.794;2023-07-13T08:43:36;6.32;;;2.40;;
15968;SDS011;8085;53.472;9.794;2023-07-13T08:46:05;7.10;;;2.20;;
15968;SDS011;8085;53.472;9.794;2023-07-13T08:48:39;6.80;;;2.28;;
15968;SDS011;8085;53.472;9.794;2023-07-13T08:51:14;6.28;;;2.63;;
15968;SDS011;8085;53.472;9.794;2023-07-13T08:53:54;11.27;;;2.88;;
15968;SDS011;8085;53.472;9.794;2023-07-13T08:56:24;11.13;;;2.72;;
15968;SDS011;8085;53.472;9.794;2023-07-13T08:58:55;7.32;;;2.30;;
15968;SDS011;8085;53.472;9.794;2023-07-13T09:01:28;9.70;;;2.38;;
15968;SDS011;8085;53.472;9.794;2023-07-13T09:04:00;6.95;;;2.33;;
15968;SDS011;8085;53.472;9.794;2023-07-13T09:06:34;8.25;;;2.25;;
15968;SDS011;8085;53.472;9.794;2023-07-13T09:09:14;6.05;;;1.90;;
15968;SDS011;8085;53.472;9.794;2023-07-13T09:11:50;7.10;;;2.05;;
15968;SDS011;8085;53.472;9.794;2023-07-13T09:14:36;7.53;;;2.03;;
15968;SDS011;8085;53.472;9.794;2023-07-13T09:17:10;6.07;;;1.77;;
15968;SDS011;8085;53.472;9.794;2023-07-13T09:19:42;10.50;;;2.15;;
15968;SDS011;8085;53.472;9.794;2023-07-13T09:22:15;5.90;;;2.05;;
15968;SDS011;8085;53.472;9.794;2023-07-13T09:24:56;4.55;;;1.77;;
15968;SDS011;8085;53.472;9.794;2023-07-13T09:27:29;10.23;;;2.45;;
15968;SDS011;8085;53.472;9.794;2023-07-13T09:30:02;7.80;;;2.10;;
15968;SDS011;8085;53.472;9.794;2023-07-13T09:32:44;7.78;;;2.35;;
15968;SDS011;8085;53.472;9.794;2023-07-13T09:35:18;6.30;;;2.10;;
15968;SDS011;8085;53.472;9.794;2023-07-13T09:37:47;5.55;;;1.92;;
15968;SDS011;8085;53.472;9.794;2023-07-13T09:40:20;5.13;;;1.92;;
15968;SDS011;8085;53.472;9.794;2023-07-13T09:42:52;6.82;;;2.28;;
15968;SDS011;8085;53.472;9.794;2023-07-13T09:45:26;5.65;;;1.70;;
15968;SDS011;8085;53.472;9.794;2023-07-13T09:48:02;6.15;;;1.92;;
15968;SDS011;8085;53.472;9.794;2023-07-13T09:50:31;6.57;;;2.00;;
15968;SDS011;8085;53.472;9.794;2023-07-13T09:52:57;6.88;;;1.50;;
15968;SDS011;8085;53.472;9.794;2023-07-13T09:55:28;7.05;;;1.85;;
15968;SDS011;8085;53.472;9.794;2023-07-13T09:57:57;4.28;;;1.58;;
15968;SDS011;8085;53.472;9.794;2023-07-13T10:00:25;5.28;;;1.75;;
15968;SDS011;8085;53.472;9.794;2023-07-13T10:03:05;6.97;;;1.70;;
15968;SDS011;8085;53.472;9.794;2023-07-13T10:05:43;6.47;;;1.83;;
15968;SDS011;8085;53.472;9.794;2023-07-13T10:08:18;3.67;;;1.40;;
15968;SDS011;8085;53.472;9.794;2023-07-13T10:10:57;4.85;;;1.55;;
15968;SDS011;8085;53.472;9.794;2023-07-13T10:13:32;3.92;;;1.52;;
15968;SDS011;8085;53.472;9.794;2023-07-13T10:16:02;3.85;;;1.33;;
15968;SDS011;8085;53.472;9.794;2023-07-13T10:18:34;5.75;;;1.20;;
15968;SDS011;8085;53.472;9.794;2023-07-13T10:21:10;3.83;;;1.50;;
15968;SDS011;8085;53.472;9.794;2023-07-13T10:23:39;3.63;;;1.23;;
15968;SDS011;8085;53.472;9.794;2023-07-13T10:26:09;3.47;;;1.60;;
15968;SDS011;8085;53.472;9.794;2023-07-13T10:28:41;5.53;;;1.38;;
15968;SDS011;8085;53.472;9.794;2023-07-13T10:31:11;4.80;;;1.17;;
15968;SDS011;8085;53.472;9.794;2023-07-13T10:33:41;2.97;;;1.33;;
15968;SDS011;8085;53.472;9.794;2023-07-13T10:36:12;4.57;;;1.15;;
15968;SDS011;8085;53.472;9.794;2023-07-13T10:38:43;2.47;;;1.20;;
15968;SDS011;8085;53.472;9.794;2023-07-13T10:41:14;4.07;;;1.50;;
15968;SDS011;8085;53.472;9.794;2023-07-13T10:43:45;3.60;;;1.35;;
15968;SDS011;8085;53.472;9.794;2023-07-13T10:46:16;5.78;;;1.75;;
15968;SDS011;8085;53.472;9.794;2023-07-13T10:48:48;3.78;;;1.30;;
15968;SDS011;8085;53.472;9.794;2023-07-13T10:51:17;7.65;;;1.42;;
15968;SDS011;8085;53.472;9.794;2023-07-13T10:53:47;7.78;;;1.90;;
15968;SDS011;8085;53.472;9.794;2023-07-13T10:56:34;5.07;;;1.27;;
15968;SDS011;8085;53.472;9.794;2023-07-13T10:59:02;4.80;;;1.02;;
15968;SDS011;8085;53.472;9.794;2023-07-13T11:01:40;5.53;;;1.30;;
15968;SDS011;8085;53.472;9.794;2023-07-13T11:04:17;2.10;;;1.08;;
15968;SDS011;8085;53.472;9.794;2023-07-13T11:06:46;5.63;;;1.58;;
15968;SDS011;8085;53.472;9.794;2023-07-13T11:12:08;4.93;;;1.27;;
15968;SDS011;8085;53.472;9.794;2023-07-13T11:15:00;6.32;;;1.15;;
15968;SDS011;8085;53.472;9.794;2023-07-13T11:17:36;3.30;;;1.23;;
15968;SDS011;8085;53.472;9.794;2023-07-13T11:20:26;5.28;;;1.20;;
15968;SDS011;8085;53.472;9.794;2023-07-13T11:25:55;4.82;;;1.40;;
15968;SDS011;8085;53.472;9.794;2023-07-13T11:28:23;5.18;;;1.15;;
15968;SDS011;8085;53.472;9.794;2023-07-13T11:31:12;3.72;;;1.17;;
15968;SDS011;8085;53.472;9.794;2023-07-13T11:33:56;3.10;;;1.08;;
15968;SDS011;8085;53.472;9.794;2023-07-13T11:36:28;5.25;;;1.17;;
15968;SDS011;8085;53.472;9.794;2023-07-13T11:39:00;6.40;;;1.33;;
15968;SDS011;8085;53.472;9.794;2023-07-13T11:41:31;3.45;;;1.23;;
15968;SDS011;8085;53.472;9.794;2023-07-13T11:44:05;2.95;;;1.13;;
15968;SDS011;8085;53.472;9.794;2023-07-13T11:46:34;3.53;;;1.15;;
15968;SDS011;8085;53.472;9.794;2023-07-13T11:49:00;3.75;;;1.20;;
15968;SDS011;8085;53.472;9.794;2023-07-13T11:51:32;2.92;;;0.82;;
15968;SDS011;8085;53.472;9.794;2023-07-13T11:54:03;6.05;;;1.30;;
15968;SDS011;8085;53.472;9.794;2023-07-13T11:56:32;1.25;;;0.90;;
15968;SDS011;8085;53.472;9.794;2023-07-13T11:59:03;5.13;;;1.23;;
15968;SDS011;8085;53.472;9.794;2023-07-13T12:01:33;4.00;;;1.30;;
15968;SDS011;8085;53.472;9.794;2023-07-13T12:04:08;7.50;;;1.42;;
15968;SDS011;8085;53.472;9.794;2023-07-13T12:06:47;3.83;;;1.20;;
15968;SDS011;8085;53.472;9.794;2023-07-13T12:09:25;2.05;;;0.90;;
15968;SDS011;8085;53.472;9.794;2023-07-13T12:11:54;2.47;;;1.20;;
15968;SDS011;8085;53.472;9.794;2023-07-13T12:14:23;3.03;;;1.15;;
15968;SDS011;8085;53.472;9.794;2023-07-13T12:16:51;2.50;;;0.95;;
15968;SDS011;8085;53.472;9.794;2023-07-13T12:19:20;2.90;;;1.27;;
15968;SDS011;8085;53.472;9.794;2023-07-13T12:21:50;5.18;;;1.15;;
15968;SDS011;8085;53.472;9.794;2023-07-13T12:24:20;3.30;;;1.23;;
15968;SDS011;8085;53.472;9.794;2023-07-13T12:26:52;2.78;;;1.45;;
15968;SDS011;8085;53.472;9.794;2023-07-13T12:29:20;4.25;;;1.45;;
15968;SDS011;8085;53.472;9.794;2023-07-13T12:31:48;3.13;;;1.30;;
15968;SDS011;8085;53.472;9.794;2023-07-13T12:34:18;2.47;;;1.05;;
15968;SDS011;8085;53.472;9.794;2023-07-13T12:36:47;3.63;;;1.20;;
15968;SDS011;8085;53.472;9.794;2023-07-13T12:39:18;2.13;;;1.00;;
15968;SDS011;8085;53.472;9.794;2023-07-13T12:41:47;6.25;;;1.55;;
15968;SDS011;8085;53.472;9.794;2023-07-13T12:44:15;6.40;;;1.85;;
15968;SDS011;8085;53.472;9.794;2023-07-13T12:46:53;4.30;;;1.30;;
15968;SDS011;8085;53.472;9.794;2023-07-13T12:49:23;3.35;;;1.73;;
15968;SDS011;8085;53.472;9.794;2023-07-13T12:51:56;2.13;;;1.40;;
15968;SDS011;8085;53.472;9.794;2023-07-13T12:54:26;3.25;;;1.67;;
15968;SDS011;8085;53.472;9.794;2023-07-13T12:56:54;3.13;;;1.60;;
15968;SDS011;8085;53.472;9.794;2023-07-13T12:59:23;5.28;;;1.60;;
15968;SDS011;8085;53.472;9.794;2023-07-13T13:01:55;3.28;;;1.42;;
15968;SDS011;8085;53.472;9.794;2023-07-13T13:04:22;2.60;;;1.52;;
15968;SDS011;8085;53.472;9.794;2023-07-13T13:06:58;3.78;;;1.90;;
15968;SDS011;8085;53.472;9.794;2023-07-13T13:09:29;4.07;;;1.98;;
15968;SDS011;8085;53.472;9.794;2023-07-13T13:11:56;4.43;;;1.58;;
15968;SDS011;8085;53.472;9.794;2023-07-13T13:14:23;4.57;;;1.50;;
15968;SDS011;8085;53.472;9.794;2023-07-13T13:16:50;2.20;;;1.27;;
15968;SDS011;8085;53.472;9.794;2023-07-13T13:19:19;2.58;;;1.13;;
15968;SDS011;8085;53.472;9.794;2023-07-13T13:21:49;1.88;;;1.00;;
15968;SDS011;8085;53.472;9.794;2023-07-13T13:24:18;1.20;;;1.10;;
15968;SDS011;8085;53.472;9.794;2023-07-13T13:26:47;2.50;;;1.00;;
15968;SDS011;8085;53.472;9.794;2023-07-13T13:29:17;2.13;;;1.00;;
15968;SDS011;8085;53.472;9.794;2023-07-13T13:31:45;2.28;;;1.33;;
15968;SDS011;8085;53.472;9.794;2023-07-13T13:34:13;3.88;;;1.10;;
15968;SDS011;8085;53.472;9.794;2023-07-13T13:36:42;2.00;;;1.13;;
15968;SDS011;8085;53.472;9.794;2023-07-13T13:39:16;2.83;;;1.30;;
15968;SDS011;8085;53.472;9.794;2023-07-13T13:41:47;3.72;;;1.58;;
15968;SDS011;8085;53.472;9.794;2023-07-13T13:44:15;3.17;;;1.15;;
15968;SDS011;8085;53.472;9.794;2023-07-13T13:46:43;4.95;;;1.42;;
15968;SDS011;8085;53.472;9.794;2023-07-13T13:49:13;2.80;;;1.30;;
15968;SDS011;8085;53.472;9.794;2023-07-13T13:51:41;4.00;;;1.42;;
15968;SDS011;8085;53.472;9.794;2023-07-13T13:54:10;5.32;;;1.42;;
15968;SDS011;8085;53.472;9.794;2023-07-13T13:56:39;5.10;;;1.38;;
15968;SDS011;8085;53.472;9.794;2023-07-13T13:59:08;3.58;;;1.40;;
15968;SDS011;8085;53.472;9.794;2023-07-13T14:01:35;3.13;;;1.25;;
15968;SDS011;8085;53.472;9.794;2023-07-13T14:04:03;2.88;;;1.20;;
15968;SDS011;8085;53.472;9.794;2023-07-13T14:06:31;4.72;;;1.30;;
15968;SDS011;8085;53.472;9.794;2023-07-13T14:08:59;3.97;;;1.55;;
15968;SDS011;8085;53.472;9.794;2023-07-13T14:11:27;3.97;;;1.30;;
15968;SDS011;8085;53.472;9.794;2023-07-13T14:13:58;3.67;;;1.20;;
15968;SDS011;8085;53.472;9.794;2023-07-13T14:16:27;1.60;;;1.13;;
15968;SDS011;8085;53.472;9.794;2023-07-13T14:18:57;2.75;;;1.27;;
15968;SDS011;8085;53.472;9.794;2023-07-13T14:21:25;3.25;;;1.30;;
15968;SDS011;8085;53.472;9.794;2023-07-13T14:23:53;3.33;;;1.30;;
15968;SDS011;8085;53.472;9.794;2023-07-13T14:26:21;2.55;;;1.30;;
15968;SDS011;8085;53.472;9.794;2023-07-13T14:28:50;2.40;;;1.10;;
15968;SDS011;8085;53.472;9.794;2023-07-13T14:31:21;2.38;;;1.95;;
15968;SDS011;8085;53.472;9.794;2023-07-13T14:33:50;1.92;;;1.10;;
15968;SDS011;8085;53.472;9.794;2023-07-13T14:36:25;1.30;;;1.20;;
15968;SDS011;8085;53.472;9.794;2023-07-13T14:38:54;3.97;;;1.80;;
15968;SDS011;8085;53.472;9.794;2023-07-13T14:41:22;3.63;;;1.52;;
15968;SDS011;8085;53.472;9.794;2023-07-13T14:43:49;3.15;;;1.67;;
15968;SDS011;8085;53.472;9.794;2023-07-13T14:46:18;1.88;;;1.40;;
15968;SDS011;8085;53.472;9.794;2023-07-13T14:49:00;3.53;;;1.60;;
15968;SDS011;8085;53.472;9.794;2023-07-13T14:51:29;1.98;;;1.65;;
15968;SDS011;8085;53.472;9.794;2023-07-13T14:53:58;2.92;;;1.50;;
15968;SDS011;8085;53.472;9.794;2023-07-13T14:56:27;1.88;;;1.45;;
15968;SDS011;8085;53.472;9.794;2023-07-13T14:58:53;2.03;;;1.52;;
15968;SDS011;8085;53.472;9.794;2023-07-13T15:01:20;2.72;;;1.48;;
15968;SDS011;8085;53.472;9.794;2023-07-13T15:03:48;3.08;;;1.33;;
15968;SDS011;8085;53.472;9.794;2023-07-13T15:06:18;4.03;;;1.48;;
15968;SDS011;8085;53.472;9.794;2023-07-13T15:08:46;2.05;;;1.30;;
15968;SDS011;8085;53.472;9.794;2023-07-13T15:11:13;2.85;;;1.25;;
15968;SDS011;8085;53.472;9.794;2023-07-13T15:13:40;1.85;;;1.13;;
15968;SDS011;8085;53.472;9.794;2023-07-13T15:16:13;2.30;;;1.10;;
15968;SDS011;8085;53.472;9.794;2023-07-13T15:18:43;2.67;;;1.15;;
15968;SDS011;8085;53.472;9.794;2023-07-13T15:21:11;1.67;;;1.02;;